Etusivu
METAR-TAF:

METAR-TAF

Lentoasemat :

Jönköping, Ruotsi

Leveyspiiri: 57-46N, Pituuspiiri: 014-05E, korkeus merenpinnasta: 226 m

Tämänhetkinen sää

Tämä raportti tehtiin 33 minuuttia sitten, kello 12.50 UTC
Tuuli 11 kn pohjoisesta, vaihdellen luoteen ja koillisen välillä
Lämpötila 3°C
Kosteus 35%
Ilmanpaine 1028 hPa
Näkyvyys 10 km tai enemmän

METAR: ESGJ 291250Z AUTO 35011KT 310V040 9999 FEW059/// 03/M11 Q1028

Aika: 15:23 (13:23 UTC)


TAF: puuttuu

Säähavainnot ja -ennusteet yli 4000 lentoasemalta (METAR- ja TAF-raportit).

Käytössä olevat sääasemat on merkitty karttaan keltaisilla ja punaisilla pisteillä.

Aseta hiiri pisteen päälle nähdäksesi sääaseman nimen.

Klikkaa sitten nähdäksesi säähavainnot ja -ennusteet.

Kartan vaihtaminen: klikkaa mustalla rastilla varustettuja vihreitä pisteitä, niin voit zoomata sisään; viivalla varustettua vihreää pistettä, niin voit zoomata ulos tai vihreitä nuolia, niin pääset viereisille kartoille.


METAR-TAF: